createdAt,value
2022-09-14T00:00:11.598Z,97389.03
2022-09-14T00:02:40.126Z,97385.47
2022-09-14T00:05:06.994Z,97388.84
2022-09-14T00:07:33.542Z,97385.41
2022-09-14T00:10:00.927Z,97374.06
2022-09-14T00:12:27.707Z,97372.84
2022-09-14T00:14:54.312Z,97373.59
2022-09-14T00:17:20.836Z,97372.13
2022-09-14T00:19:47.800Z,97370.75
2022-09-14T00:22:15.063Z,97369.44
2022-09-14T00:24:41.610Z,97370.81
2022-09-14T00:27:08.248Z,97371.00
2022-09-14T00:29:34.857Z,97362.34
2022-09-14T00:32:01.805Z,97358.31
2022-09-14T00:34:28.595Z,97354.00
2022-09-14T00:36:55.738Z,97341.84
2022-09-14T00:39:28.079Z,97334.75
2022-09-14T00:41:54.911Z,97323.69
2022-09-14T00:44:24.604Z,97317.22
2022-09-14T00:46:54.849Z,97317.72
2022-09-14T00:49:34.167Z,97319.16
2022-09-14T00:52:09.416Z,97316.44
2022-09-14T00:54:41.791Z,97315.06
2022-09-14T00:57:08.496Z,97309.25
2022-09-14T00:59:38.199Z,97309.31
2022-09-14T01:02:06.622Z,97308.66
2022-09-14T01:04:33.179Z,97315.06
2022-09-14T01:07:27.459Z,97308.81
2022-09-14T01:10:26.819Z,97299.63
2022-09-14T01:13:26.720Z,97291.38
2022-09-14T01:16:15.389Z,97286.81
2022-09-14T01:18:56.645Z,97289.06
2022-09-14T01:21:34.180Z,97277.13
2022-09-14T01:24:07.703Z,97259.75
2022-09-14T01:26:47.241Z,97262.81
2022-09-14T01:29:52.716Z,97272.81
2022-09-14T01:32:27.699Z,97294.22
2022-09-14T01:35:00.826Z,97370.25
2022-09-14T01:37:33.457Z,97413.38
2022-09-14T01:40:17.335Z,97420.41
2022-09-14T01:42:46.703Z,97428.50
2022-09-14T01:45:16.483Z,97379.00
2022-09-14T01:47:49.123Z,97379.00
2022-09-14T01:50:27.535Z,97379.03
2022-09-14T01:53:13.371Z,97396.94
2022-09-14T01:55:44.071Z,97374.56
2022-09-14T01:58:25.804Z,97381.66
2022-09-14T02:00:53.986Z,97386.22
2022-09-14T02:03:27.374Z,97390.47
2022-09-14T02:05:56.945Z,97399.34
2022-09-14T02:08:26.868Z,97413.16
2022-09-14T02:10:53.518Z,97428.19
2022-09-14T02:13:20.028Z,97420.50
2022-09-14T02:15:46.765Z,97422.09
2022-09-14T02:18:13.370Z,97417.28
2022-09-14T02:20:50.195Z,97411.78
2022-09-14T02:23:17.465Z,97409.72
2022-09-14T02:25:46.799Z,97412.63
2022-09-14T02:28:14.221Z,97414.78
2022-09-14T02:31:17.813Z,97410.03
2022-09-14T02:34:08.486Z,97391.28
2022-09-14T02:37:00.771Z,97381.13
2022-09-14T02:39:36.257Z,97382.69
2022-09-14T02:42:24.732Z,97389.44
2022-09-14T02:44:59.886Z,97384.81
2022-09-14T02:47:40.306Z,97389.72
2022-09-14T02:50:47.645Z,97390.50
2022-09-14T02:53:27.048Z,97390.94
2022-09-14T02:55:59.596Z,97390.94
2022-09-14T02:58:34.557Z,97393.34
2022-09-14T03:01:01.135Z,97378.84
2022-09-14T03:03:29.456Z,97367.53
2022-09-14T03:05:59.093Z,97367.59
2022-09-14T03:08:26.508Z,97361.25
2022-09-14T03:10:53.020Z,97349.69
2022-09-14T03:13:19.489Z,97345.44
2022-09-14T03:15:45.997Z,97347.28
2022-09-14T03:18:14.570Z,97351.66
2022-09-14T03:20:41.739Z,97345.94
2022-09-14T03:23:09.129Z,97340.78
2022-09-14T03:25:40.199Z,97339.06
2022-09-14T03:28:07.327Z,97341.81
2022-09-14T03:30:34.226Z,97338.66
2022-09-14T03:33:01.194Z,97336.38
2022-09-14T03:35:30.581Z,97338.28
2022-09-14T03:37:57.587Z,97332.59
2022-09-14T03:40:24.258Z,97319.41
2022-09-14T03:42:51.696Z,97323.41
2022-09-14T03:45:19.329Z,97320.16
2022-09-14T03:47:46.912Z,97319.00
2022-09-14T03:50:14.465Z,97325.31
2022-09-14T03:52:41.000Z,97312.34
2022-09-14T03:55:09.205Z,97302.91
2022-09-14T03:57:36.236Z,97311.56
2022-09-14T04:00:04.536Z,97301.94
2022-09-14T04:02:38.026Z,97295.31
2022-09-14T04:05:05.008Z,97289.41
2022-09-14T04:07:31.509Z,97299.44
2022-09-14T04:09:58.372Z,97287.81
2022-09-14T04:12:25.123Z,97285.22
2022-09-14T04:14:51.624Z,97275.31
2022-09-14T04:17:18.318Z,97278.63
2022-09-14T04:19:44.862Z,97280.31
2022-09-14T04:22:11.543Z,97273.38
2022-09-14T04:24:38.131Z,97268.31
2022-09-14T04:27:04.626Z,97262.19
2022-09-14T04:29:31.142Z,97265.06
2022-09-14T04:31:58.126Z,97269.13
2022-09-14T04:34:25.191Z,97270.91
2022-09-14T04:36:52.016Z,97256.41
2022-09-14T04:39:19.609Z,97263.69
2022-09-14T04:41:46.569Z,97260.94
2022-09-14T04:44:13.285Z,97255.44
2022-09-14T04:46:46.250Z,97262.53
2022-09-14T04:49:13.735Z,97262.53
2022-09-14T04:51:40.303Z,97265.06
2022-09-14T04:54:07.488Z,97266.50
2022-09-14T04:56:36.010Z,97271.25
2022-09-14T04:59:04.286Z,97267.13
2022-09-14T05:01:34.612Z,97272.78
2022-09-14T05:04:01.793Z,97270.75
2022-09-14T05:06:31.788Z,97276.41
2022-09-14T05:08:59.933Z,97273.50
2022-09-14T05:11:30.143Z,97273.50
2022-09-14T05:13:57.808Z,97271.34
2022-09-14T05:16:37.758Z,97272.06
2022-09-14T05:19:07.096Z,97284.25
2022-09-14T05:21:34.968Z,97331.13
2022-09-14T05:24:04.875Z,97318.16
2022-09-14T05:26:31.971Z,97298.81
2022-09-14T05:29:00.128Z,97305.88
2022-09-14T05:31:27.478Z,97318.72
2022-09-14T05:33:54.125Z,97323.19
2022-09-14T05:36:21.736Z,97322.22
2022-09-14T05:38:48.357Z,97323.28
2022-09-14T05:41:15.816Z,97326.63
2022-09-14T05:43:42.640Z,97326.31
2022-09-14T05:46:14.705Z,97316.63
2022-09-14T05:48:41.509Z,97313.28
2022-09-14T05:51:14.301Z,97318.94
2022-09-14T05:53:41.027Z,97317.22
2022-09-14T05:56:12.484Z,97309.88
2022-09-14T05:58:40.343Z,97300.03
2022-09-14T06:01:12.461Z,97293.25
2022-09-14T06:03:39.161Z,97292.78
2022-09-14T06:06:07.180Z,97287.81
2022-09-14T06:08:34.303Z,97282.22
2022-09-14T06:11:12.115Z,97278.63
2022-09-14T06:13:38.742Z,97263.69
2022-09-14T06:16:07.923Z,97281.22
2022-09-14T06:18:35.970Z,97282.31
2022-09-14T06:21:03.617Z,97286.50
2022-09-14T06:23:31.588Z,97282.91
2022-09-14T06:26:00.603Z,97301.09
2022-09-14T06:28:28.635Z,97305.78
2022-09-14T06:30:55.727Z,97305.44
2022-09-14T06:33:22.615Z,97307.53
2022-09-14T06:36:12.247Z,97294.81
2022-09-14T06:38:40.065Z,97290.06
2022-09-14T06:41:09.320Z,97288.22
2022-09-14T06:43:41.235Z,97292.50
2022-09-14T06:46:14.776Z,97276.94
2022-09-14T06:48:45.903Z,97279.78
2022-09-14T06:51:24.442Z,97279.81
2022-09-14T06:53:51.661Z,97277.41
2022-09-14T06:56:18.599Z,97276.47
2022-09-14T06:58:45.474Z,97275.09
2022-09-14T07:01:15.010Z,97276.53
2022-09-14T07:03:43.886Z,97278.94
2022-09-14T07:06:22.249Z,97278.53
2022-09-14T07:08:50.341Z,97276.00
2022-09-14T07:11:19.043Z,97276.09
2022-09-14T07:13:46.059Z,97282.59
2022-09-14T07:16:13.423Z,97275.13
2022-09-14T07:18:40.506Z,97283.25
2022-09-14T07:21:13.827Z,97287.50
2022-09-14T07:23:42.407Z,97301.22
2022-09-14T07:26:23.643Z,97306.75
2022-09-14T07:28:54.915Z,97292.38
2022-09-14T07:31:22.972Z,97298.78
2022-09-14T07:33:53.264Z,97296.78
2022-09-14T07:36:19.833Z,97296.53
2022-09-14T07:38:52.691Z,97300.94
2022-09-14T07:41:24.801Z,97297.59
2022-09-14T07:43:52.519Z,97297.00
2022-09-14T07:46:20.236Z,97295.06
2022-09-14T07:48:47.606Z,97297.19
2022-09-14T07:51:14.502Z,97297.66
2022-09-14T07:53:42.800Z,97310.34
2022-09-14T07:56:10.619Z,97310.03
2022-09-14T07:58:37.251Z,97291.00
2022-09-14T08:01:08.487Z,97296.22
2022-09-14T08:03:40.166Z,97299.31
2022-09-14T08:06:14.145Z,97300.47
2022-09-14T08:08:42.812Z,97320.03
2022-09-14T08:11:14.880Z,97317.00
2022-09-14T08:13:46.506Z,97323.56
2022-09-14T08:16:13.884Z,97330.94
2022-09-14T08:18:40.753Z,97329.63
2022-09-14T08:21:09.518Z,97331.91
2022-09-14T08:23:36.793Z,97337.16
2022-09-14T08:26:15.589Z,97340.38
2022-09-14T08:28:42.696Z,97331.66
2022-09-14T08:31:28.835Z,97336.50
2022-09-14T08:34:03.627Z,97336.47
2022-09-14T08:36:35.952Z,97353.13
2022-09-14T08:39:02.919Z,97356.75
2022-09-14T08:41:51.069Z,97348.97
2022-09-14T08:44:25.778Z,97338.09
2022-09-14T08:46:58.294Z,97344.66
2022-09-14T08:49:36.079Z,97370.69
2022-09-14T08:52:02.971Z,97381.53
2022-09-14T08:54:31.464Z,97393.13
2022-09-14T08:57:19.431Z,97406.19
2022-09-14T09:00:22.629Z,97401.75
2022-09-14T09:02:58.267Z,97389.78
2022-09-14T09:05:49.555Z,97379.75
2022-09-14T09:08:29.392Z,97372.16
2022-09-14T09:10:59.192Z,97352.03
2022-09-14T09:13:30.954Z,97343.81
2022-09-14T09:16:00.311Z,97347.47
2022-09-14T09:18:38.724Z,97354.78
2022-09-14T09:21:11.023Z,97371.34
2022-09-14T09:23:37.578Z,97369.34
2022-09-14T09:26:12.192Z,97371.44
2022-09-14T09:28:45.780Z,97371.78
2022-09-14T09:31:14.903Z,97374.13
2022-09-14T09:34:02.083Z,97374.63
2022-09-14T09:36:35.406Z,97369.13
2022-09-14T09:39:05.182Z,97360.13
2022-09-14T09:41:40.505Z,97354.91
2022-09-14T09:44:11.466Z,97349.78
2022-09-14T09:46:40.123Z,97335.59
2022-09-14T09:49:24.030Z,97340.50
2022-09-14T09:51:51.599Z,97333.59
2022-09-14T09:54:27.484Z,97336.78
2022-09-14T09:57:06.553Z,97333.44
2022-09-14T09:59:39.018Z,97327.28
2022-09-14T10:02:28.655Z,97315.72
2022-09-14T10:04:58.445Z,97307.84
2022-09-14T10:07:26.257Z,97297.19
2022-09-14T10:10:11.079Z,97295.16
2022-09-14T10:12:39.344Z,97296.97
2022-09-14T10:15:16.274Z,97296.34
2022-09-14T10:18:06.331Z,97285.50
2022-09-14T10:20:33.288Z,97281.63
2022-09-14T10:23:15.403Z,97280.16
2022-09-14T10:25:42.009Z,97286.31
2022-09-14T10:28:21.659Z,97287.63
2022-09-14T10:31:11.606Z,97277.16
2022-09-14T10:33:38.495Z,97285.28
2022-09-14T10:36:17.658Z,97272.34
2022-09-14T10:38:58.813Z,97263.44
2022-09-14T10:42:04.082Z,97259.44
2022-09-14T10:44:49.496Z,97268.56
2022-09-14T10:47:39.134Z,97255.69
2022-09-14T10:50:08.465Z,97243.75
2022-09-14T10:52:53.678Z,97245.31
2022-09-14T10:55:36.871Z,97244.06
2022-09-14T10:58:18.001Z,97239.69
2022-09-14T11:01:01.713Z,97231.41
2022-09-14T11:03:53.418Z,97225.19
2022-09-14T11:06:29.555Z,97215.84
2022-09-14T11:09:06.123Z,97212.75
2022-09-14T11:12:02.012Z,97213.22
2022-09-14T11:14:28.416Z,97220.25
2022-09-14T11:17:11.388Z,97211.00
2022-09-14T11:19:48.622Z,97211.16
2022-09-14T11:22:42.556Z,97214.69
2022-09-14T11:25:19.787Z,97202.66
2022-09-14T11:27:51.685Z,97206.38
2022-09-14T11:30:20.728Z,97193.59
2022-09-14T11:32:52.709Z,97195.53
2022-09-14T11:35:24.043Z,97193.41
2022-09-14T11:37:55.407Z,97191.38
2022-09-14T11:40:26.598Z,97187.75
2022-09-14T11:43:01.367Z,97193.41
2022-09-14T11:45:32.150Z,97194.09
2022-09-14T11:48:41.754Z,97191.34
2022-09-14T11:51:13.327Z,97179.44
2022-09-14T11:53:42.121Z,97182.25
2022-09-14T11:56:27.278Z,97180.06
2022-09-14T11:59:04.114Z,97179.31
2022-09-14T12:01:36.825Z,97176.38
2022-09-14T12:04:15.699Z,97182.19
2022-09-14T12:06:51.007Z,97180.81
2022-09-14T12:09:17.519Z,97189.19
2022-09-14T12:11:45.117Z,97191.75
2022-09-14T12:14:23.696Z,97188.97
2022-09-14T12:17:41.249Z,97196.22
2022-09-14T12:20:33.413Z,97189.81
2022-09-14T12:23:21.321Z,97204.41
2022-09-14T12:26:05.876Z,97205.19
2022-09-14T12:28:35.377Z,97199.47
2022-09-14T12:31:04.985Z,97195.16
2022-09-14T12:33:31.817Z,97194.41
2022-09-14T12:36:05.453Z,97204.44
2022-09-14T12:38:31.994Z,97210.84
2022-09-14T12:41:10.433Z,97206.44
2022-09-14T12:43:37.199Z,97210.56
2022-09-14T12:46:22.542Z,97216.13
2022-09-14T12:48:49.530Z,97223.78
2022-09-14T12:51:28.978Z,97222.34
2022-09-14T12:53:58.314Z,97228.47
2022-09-14T12:56:40.823Z,97212.47
2022-09-14T12:59:12.006Z,97228.03
2022-09-14T13:02:20.752Z,97221.91
2022-09-14T13:04:47.928Z,97239.13
2022-09-14T13:07:16.698Z,97244.13
2022-09-14T13:09:51.486Z,97229.91
2022-09-14T13:12:27.738Z,97245.47
2022-09-14T13:15:00.840Z,97245.75
2022-09-14T13:17:27.637Z,97253.97
2022-09-14T13:19:58.755Z,97248.06
2022-09-14T13:22:29.302Z,97253.31
2022-09-14T13:24:56.410Z,97268.66
2022-09-14T13:27:24.586Z,97264.66
2022-09-14T13:30:17.757Z,97278.78
2022-09-14T13:32:45.691Z,97293.56
2022-09-14T13:35:32.328Z,97313.56
2022-09-14T13:38:05.948Z,97310.69
2022-09-14T13:40:34.166Z,97303.78
2022-09-14T13:43:00.999Z,97309.25
2022-09-14T13:45:27.793Z,97301.88
2022-09-14T13:47:54.796Z,97299.34
2022-09-14T13:50:23.954Z,97302.28
2022-09-14T13:53:01.741Z,97306.31
2022-09-14T13:55:42.957Z,97305.25
2022-09-14T13:58:09.472Z,97304.47
2022-09-14T14:01:08.607Z,97294.78
2022-09-14T14:03:47.511Z,97281.47
2022-09-14T14:06:28.508Z,97275.09
2022-09-14T14:09:06.875Z,97268.91
2022-09-14T14:11:46.207Z,97266.31
2022-09-14T14:14:16.141Z,97264.56
2022-09-14T14:17:21.339Z,97260.72
2022-09-14T14:19:49.427Z,97257.72
2022-09-14T14:22:15.924Z,97251.63
2022-09-14T14:25:11.882Z,97243.31
2022-09-14T14:27:43.076Z,97240.84
2022-09-14T14:30:20.707Z,97234.53
2022-09-14T14:32:54.777Z,97247.88
2022-09-14T14:35:31.260Z,97253.97
2022-09-14T14:37:58.513Z,97245.63
2022-09-14T14:40:29.652Z,97256.00
2022-09-14T14:42:58.263Z,97263.72
2022-09-14T14:45:26.563Z,97273.28
2022-09-14T14:47:54.984Z,97288.34
2022-09-14T14:50:29.511Z,97292.44
2022-09-14T14:52:56.938Z,97281.81
2022-09-14T14:55:25.661Z,97296.53
2022-09-14T14:57:52.661Z,97289.88
2022-09-14T15:00:23.999Z,97299.69
2022-09-14T15:02:51.115Z,97300.84
2022-09-14T15:05:18.500Z,97283.38
2022-09-14T15:07:45.545Z,97285.56
2022-09-14T15:10:16.666Z,97278.41
2022-09-14T15:12:43.684Z,97278.50
2022-09-14T15:15:14.866Z,97273.22
2022-09-14T15:17:42.495Z,97265.69
2022-09-14T15:20:12.387Z,97258.00
2022-09-14T15:22:42.414Z,97253.47
2022-09-14T15:25:10.581Z,97248.38
2022-09-14T15:27:39.435Z,97245.56
2022-09-14T15:30:07.041Z,97245.09
2022-09-14T15:32:33.738Z,97238.34
2022-09-14T15:35:00.333Z,97216.88
2022-09-14T15:37:27.234Z,97202.03
2022-09-14T15:39:53.938Z,97194.31
2022-09-14T15:42:20.529Z,97201.28
2022-09-14T15:44:47.201Z,97190.78
2022-09-14T15:47:17.361Z,97170.66
2022-09-14T15:49:44.062Z,97170.91
2022-09-14T15:52:11.644Z,97150.94
2022-09-14T15:54:38.867Z,97147.88
2022-09-14T15:57:08.092Z,97167.88
2022-09-14T15:59:43.760Z,97177.09
2022-09-14T16:02:12.331Z,97166.03
2022-09-14T16:04:39.560Z,97177.09
2022-09-14T16:07:11.578Z,97169.25
2022-09-14T16:09:39.627Z,97172.69
2022-09-14T16:12:07.004Z,97159.19
2022-09-14T16:14:33.728Z,97144.66
2022-09-14T16:17:00.766Z,97148.25
2022-09-14T16:19:28.199Z,97150.06
2022-09-14T16:21:55.380Z,97144.75
2022-09-14T16:24:23.656Z,97157.78
2022-09-14T16:26:50.475Z,97162.94
2022-09-14T16:29:18.600Z,97168.97
2022-09-14T16:31:47.210Z,97181.78
2022-09-14T16:34:20.185Z,97202.44
2022-09-14T16:36:47.308Z,97196.28
2022-09-14T16:39:18.979Z,97195.16
2022-09-14T16:41:46.145Z,97201.50
2022-09-14T16:44:18.419Z,97213.38
2022-09-14T16:46:45.261Z,97202.25
2022-09-14T16:49:12.367Z,97203.63
2022-09-14T16:51:39.026Z,97210.72
2022-09-14T16:54:06.240Z,97217.16
2022-09-14T16:56:35.701Z,97213.09
2022-09-14T16:59:03.577Z,97214.44
2022-09-14T17:01:35.384Z,97202.94
2022-09-14T17:04:23.736Z,97211.22
2022-09-14T17:06:52.793Z,97205.59
2022-09-14T17:09:22.101Z,97206.81
2022-09-14T17:11:49.228Z,97205.38
2022-09-14T17:14:18.371Z,97207.41
2022-09-14T17:16:45.656Z,97201.00
2022-09-14T17:19:12.876Z,97211.25
2022-09-14T17:21:44.318Z,97207.22
2022-09-14T17:24:14.576Z,97208.72
2022-09-14T17:26:41.916Z,97226.56
2022-09-14T17:29:08.888Z,97223.19
2022-09-14T17:31:38.025Z,97215.91
2022-09-14T17:34:06.304Z,97209.56
2022-09-14T17:36:33.269Z,97203.69
2022-09-14T17:39:09.229Z,97212.22
2022-09-14T17:41:38.971Z,97209.69
2022-09-14T17:44:07.648Z,97206.56
2022-09-14T17:46:34.609Z,97203.56
2022-09-14T17:49:04.609Z,97203.50
2022-09-14T17:51:32.208Z,97207.63
2022-09-14T17:53:59.166Z,97208.84
2022-09-14T17:56:27.260Z,97208.72
2022-09-14T17:59:06.087Z,97205.72
2022-09-14T18:01:33.661Z,97212.16
2022-09-14T18:04:11.974Z,97208.72
2022-09-14T18:06:41.297Z,97209.88
2022-09-14T18:09:17.799Z,97211.25
2022-09-14T18:11:45.177Z,97207.59
2022-09-14T18:14:18.656Z,97207.34
2022-09-14T18:16:45.785Z,97220.03
2022-09-14T18:19:13.057Z,97212.84
2022-09-14T18:21:40.069Z,97211.97
2022-09-14T18:24:07.053Z,97224.88
2022-09-14T18:26:33.851Z,97228.38
2022-09-14T18:29:00.349Z,97222.81
2022-09-14T18:31:27.091Z,97218.34
2022-09-14T18:34:00.220Z,97217.88
2022-09-14T18:38:57.839Z,97228.16
2022-09-14T18:41:24.652Z,97222.66
2022-09-14T18:43:52.546Z,97224.16
2022-09-14T18:46:21.022Z,97228.34
2022-09-14T18:48:54.238Z,97225.41
2022-09-14T18:51:21.324Z,97231.81
2022-09-14T18:53:48.880Z,97218.53
2022-09-14T18:56:17.120Z,97225.00
2022-09-14T18:58:46.094Z,97229.06
2022-09-14T19:01:13.081Z,97231.63
2022-09-14T19:03:40.881Z,97227.44
2022-09-14T19:06:09.664Z,97219.88
2022-09-14T19:08:36.830Z,97216.47
2022-09-14T19:11:14.310Z,97224.97
2022-09-14T19:13:41.242Z,97227.63
2022-09-14T19:16:08.516Z,97230.63
2022-09-14T19:18:35.740Z,97228.50
2022-09-14T19:21:16.227Z,97227.78
2022-09-14T19:23:43.187Z,97235.06
2022-09-14T19:26:13.417Z,97236.31
2022-09-14T19:28:40.183Z,97231.13
2022-09-14T19:31:14.317Z,97235.88
2022-09-14T19:33:45.334Z,97237.78
2022-09-14T19:36:19.816Z,97232.94
2022-09-14T19:38:46.617Z,97237.06
2022-09-14T19:41:13.469Z,97237.00
2022-09-14T19:43:40.045Z,97246.09
2022-09-14T19:46:08.351Z,97245.34
2022-09-14T19:48:35.460Z,97250.19
2022-09-14T19:53:31.544Z,97256.72
2022-09-14T19:55:58.311Z,97253.84
2022-09-14T19:58:26.260Z,97247.47
2022-09-14T20:00:59.238Z,97245.34
2022-09-14T20:03:25.868Z,97249.59
2022-09-14T20:06:00.222Z,97252.56
2022-09-14T20:08:26.892Z,97256.03
2022-09-14T20:10:53.906Z,97260.22
2022-09-14T20:13:20.768Z,97261.66
2022-09-14T20:15:47.356Z,97271.94
2022-09-14T20:18:13.889Z,97265.69
2022-09-14T20:20:42.811Z,97267.28
2022-09-14T20:23:09.424Z,97265.91
2022-09-14T20:25:36.049Z,97275.72
2022-09-14T20:28:02.667Z,97275.41
2022-09-14T20:30:29.327Z,97284.50
2022-09-14T20:32:55.890Z,97277.56
2022-09-14T20:35:22.431Z,97278.53
2022-09-14T20:37:48.933Z,97276.53
2022-09-14T20:40:15.625Z,97274.41
2022-09-14T20:42:42.227Z,97279.34
2022-09-14T20:45:09.208Z,97279.59
2022-09-14T20:47:35.916Z,97287.94
2022-09-14T20:50:08.751Z,97291.94
2022-09-14T20:52:41.657Z,97282.09
2022-09-14T20:55:21.708Z,97287.75
2022-09-14T20:58:06.148Z,97290.06
2022-09-14T21:00:54.749Z,97288.13
2022-09-14T21:03:27.088Z,97283.84
2022-09-14T21:06:02.641Z,97289.44
2022-09-14T21:08:33.911Z,97293.69
2022-09-14T21:11:15.561Z,97281.41
2022-09-14T21:13:52.549Z,97282.59
2022-09-14T21:16:34.085Z,97276.97
2022-09-14T21:19:03.954Z,97276.38
2022-09-14T21:21:41.222Z,97275.53
2022-09-14T21:24:13.902Z,97272.97
2022-09-14T21:26:49.827Z,97260.66
2022-09-14T21:29:24.932Z,97260.53
2022-09-14T21:31:52.456Z,97260.19
2022-09-14T21:34:36.006Z,97262.94
2022-09-14T21:37:05.812Z,97257.97
2022-09-14T21:39:38.768Z,97255.75
2022-09-14T21:42:08.703Z,97258.50
2022-09-14T21:44:46.116Z,97260.53
2022-09-14T21:47:29.547Z,97261.06
2022-09-14T21:50:04.051Z,97246.94
2022-09-14T21:52:43.407Z,97238.41
2022-09-14T21:55:26.407Z,97245.41
2022-09-14T21:58:10.148Z,97248.25
2022-09-14T22:00:42.939Z,97255.63
2022-09-14T22:03:13.278Z,97256.22
2022-09-14T22:05:42.268Z,97260.97
2022-09-14T22:08:16.689Z,97245.03
2022-09-14T22:10:48.403Z,97255.03
2022-09-14T22:13:19.037Z,97261.44
2022-09-14T22:15:48.751Z,97259.09
2022-09-14T22:18:16.122Z,97252.09
2022-09-14T22:20:48.851Z,97251.56
2022-09-14T22:23:31.880Z,97257.78
2022-09-14T22:26:11.705Z,97261.97
2022-09-14T22:31:40.674Z,97268.78
2022-09-14T22:34:21.914Z,97281.34
2022-09-14T22:37:26.853Z,97284.78
2022-09-14T22:40:02.075Z,97283.28
2022-09-14T22:42:41.120Z,97280.59
2022-09-14T22:45:26.191Z,97280.75
2022-09-14T22:48:10.800Z,97280.75
2022-09-14T22:53:35.057Z,97284.38
2022-09-14T22:56:19.917Z,97287.97
2022-09-14T22:58:58.590Z,97303.78
2022-09-14T23:01:47.679Z,97295.41
2022-09-14T23:04:22.999Z,97295.78
2022-09-14T23:06:59.515Z,97280.44
2022-09-14T23:09:29.078Z,97277.56
2022-09-14T23:11:56.527Z,97280.44
2022-09-14T23:14:28.597Z,97283.91
2022-09-14T23:16:59.311Z,97290.28
2022-09-14T23:19:26.692Z,97302.97
2022-09-14T23:22:01.109Z,97306.91
2022-09-14T23:24:32.963Z,97309.34
2022-09-14T23:27:02.986Z,97308.41
2022-09-14T23:29:32.434Z,97317.13
2022-09-14T23:32:03.227Z,97315.91
2022-09-14T23:34:36.175Z,97315.25
2022-09-14T23:37:03.301Z,97323.84
2022-09-14T23:39:43.316Z,97328.38
2022-09-14T23:42:17.174Z,97326.06
2022-09-14T23:44:44.687Z,97330.19
2022-09-14T23:47:16.449Z,97331.41
2022-09-14T23:49:49.026Z,97338.06
2022-09-14T23:52:18.632Z,97327.81
2022-09-14T23:54:58.480Z,97323.13
2022-09-14T23:57:35.872Z,97324.56
